Time;durP1;ratioP1;P1;durP2;ratioP2;P2;SDS_P1;SDS_P2;PMS_P1;PMS_P2;Temp;Humidity;BMP_temperature;BMP_pressure;BME280_temperature;BME280_humidity;BME280_pressure;Samples;Min_cycle;Max_cycle;Signal;HPM_P1;HPM_P2
2021/07/16 00:01:27;;;;;;;16.70;12.25;;;;;;;;;;5093116;28;20031;-68
2021/07/16 00:03:52;;;;;;;16.23;11.40;;;;;;;;;;5093151;28;20468;-68
2021/07/16 00:06:18;;;;;;;13.23;11.90;;;;;;;;;;5095885;28;20027;-68
2021/07/16 00:08:44;;;;;;;14.15;12.15;;;;;;;;;;5078148;28;20024;-68
2021/07/16 00:11:10;;;;;;;14.88;13.10;;;;;;;;;;5097142;28;20509;-69
2021/07/16 00:13:35;;;;;;;14.48;12.93;;;;;;;;;;5096777;28;20051;-68
2021/07/16 00:16:01;;;;;;;19.67;14.90;;;;;;;;;;5096828;28;20040;-68
2021/07/16 00:18:26;;;;;;;17.55;15.10;;;;;;;;;;5096815;28;20077;-68
2021/07/16 00:20:52;;;;;;;17.00;13.98;;;;;;;;;;5096672;28;20036;-68
2021/07/16 00:23:17;;;;;;;17.10;13.68;;;;;;;;;;5096654;28;20027;-68
2021/07/16 00:25:43;;;;;;;15.27;13.18;;;;;;;;;;5061888;28;20028;-69
2021/07/16 00:28:09;;;;;;;18.90;13.52;;;;;;;;;;5096845;28;20043;-69
2021/07/16 00:30:35;;;;;;;20.00;15.27;;;;;;;;;;5096651;28;20051;-69
2021/07/16 00:33:01;;;;;;;18.50;14.20;;;;;;;;;;5096927;28;20016;-67
2021/07/16 00:35:26;;;;;;;18.10;13.77;;;;;;;;;;5096571;28;20408;-68
2021/07/16 00:37:51;;;;;;;16.58;13.50;;;;;;;;;;5096284;28;20475;-68
2021/07/16 00:40:17;;;;;;;15.90;14.10;;;;;;;;;;5095652;28;20040;-68
2021/07/16 00:42:43;;;;;;;19.42;14.15;;;;;;;;;;5096667;28;20085;-68
2021/07/16 00:45:10;;;;;;;17.10;14.32;;;;;;;;;;5078292;28;20024;-68
2021/07/16 00:47:36;;;;;;;18.35;14.80;;;;;;;;;;5096041;28;20422;-68
2021/07/16 00:50:03;;;;;;;18.85;15.45;;;;;;;;;;5096308;28;20038;-68
2021/07/16 00:52:28;;;;;;;17.88;14.55;;;;;;;;;;5078283;28;20027;-69
2021/07/16 00:54:54;;;;;;;17.77;14.85;;;;;;;;;;5095885;28;20029;-68
2021/07/16 00:57:19;;;;;;;19.30;14.15;;;;;;;;;;5077783;28;20481;-61
2021/07/16 00:59:45;;;;;;;16.63;14.85;;;;;;;;;;5095841;28;20016;-61
2021/07/16 01:02:11;;;;;;;16.42;13.90;;;;;;;;;;5096195;28;20018;-61
2021/07/16 01:04:37;;;;;;;16.98;13.57;;;;;;;;;;5095844;28;20446;-61
2021/07/16 01:07:05;;;;;;;15.98;14.15;;;;;;;;;;5095789;28;20048;-61
2021/07/16 01:09:30;;;;;;;16.17;14.57;;;;;;;;;;5077962;28;20024;-61
2021/07/16 01:11:56;;;;;;;15.25;13.60;;;;;;;;;;5095906;28;20012;-61
2021/07/16 01:14:21;;;;;;;17.73;15.35;;;;;;;;;;5095860;28;20035;-61
2021/07/16 01:16:47;;;;;;;15.95;13.90;;;;;;;;;;5077356;28;20030;-61
2021/07/16 01:19:15;;;;;;;15.85;13.68;;;;;;;;;;5095665;28;20035;-61
2021/07/16 01:21:41;;;;;;;16.70;14.57;;;;;;;;;;5095604;28;20020;-61
2021/07/16 01:24:07;;;;;;;18.63;16.38;;;;;;;;;;5077465;28;20462;-61
2021/07/16 01:26:35;;;;;;;17.35;14.93;;;;;;;;;;5095451;28;20020;-61
2021/07/16 01:29:02;;;;;;;19.25;15.80;;;;;;;;;;5095556;28;20024;-61
2021/07/16 01:31:28;;;;;;;18.70;16.30;;;;;;;;;;5095508;28;20107;-61
2021/07/16 01:33:54;;;;;;;20.33;15.38;;;;;;;;;;5095464;28;20158;-61
2021/07/16 01:36:19;;;;;;;16.58;14.35;;;;;;;;;;5095691;28;20353;-69
2021/07/16 01:38:44;;;;;;;20.38;14.55;;;;;;;;;;5095408;28;20035;-69
2021/07/16 01:41:10;;;;;;;16.65;14.15;;;;;;;;;;5073402;28;20098;-69
2021/07/16 01:43:35;;;;;;;19.30;14.05;;;;;;;;;;5074796;28;20024;-69
2021/07/16 01:46:03;;;;;;;15.85;14.20;;;;;;;;;;5073398;28;20106;-68
2021/07/16 01:48:30;;;;;;;16.33;13.93;;;;;;;;;;5075023;28;20052;-67
2021/07/16 01:50:55;;;;;;;21.95;14.40;;;;;;;;;;5074818;28;20016;-68
2021/07/16 01:53:21;;;;;;;21.17;14.85;;;;;;;;;;5075013;28;20431;-68
2021/07/16 01:55:47;;;;;;;19.38;14.55;;;;;;;;;;5074569;28;20021;-68
2021/07/16 01:58:13;;;;;;;20.70;14.95;;;;;;;;;;5073446;28;20419;-68
2021/07/16 02:00:39;;;;;;;17.42;15.38;;;;;;;;;;5074533;28;20055;-68
2021/07/16 02:03:06;;;;;;;19.23;16.92;;;;;;;;;;5074539;28;20040;-68
2021/07/16 02:05:32;;;;;;;20.15;15.82;;;;;;;;;;5074487;28;20021;-68
2021/07/16 02:07:59;;;;;;;19.10;14.77;;;;;;;;;;5073019;28;20024;-68
2021/07/16 02:10:26;;;;;;;18.42;14.65;;;;;;;;;;5056517;28;20524;-68
2021/07/16 02:12:52;;;;;;;16.73;14.32;;;;;;;;;;5074427;28;20028;-69
2021/07/16 02:15:18;;;;;;;21.77;15.48;;;;;;;;;;5073035;28;20475;-69
2021/07/16 02:17:45;;;;;;;22.15;15.82;;;;;;;;;;5072869;28;20036;-69
2021/07/16 02:20:23;;;;;;;20.33;14.82;;;;;;;;;;5074368;28;20384;-69
2021/07/16 02:22:49;;;;;;;19.00;15.50;;;;;;;;;;5074172;28;20028;-69
2021/07/16 02:25:15;;;;;;;21.23;14.98;;;;;;;;;;5074179;28;20170;-69
2021/07/16 02:27:42;;;;;;;20.42;16.10;;;;;;;;;;5073501;28;20024;-69
2021/07/16 02:30:08;;;;;;;26.17;17.10;;;;;;;;;;5074142;28;20017;-69
2021/07/16 02:32:33;;;;;;;24.42;18.20;;;;;;;;;;5074278;28;20028;-69
2021/07/16 02:34:59;;;;;;;31.50;19.95;;;;;;;;;;5074164;28;20499;-69
2021/07/16 02:37:24;;;;;;;30.83;21.85;;;;;;;;;;5073949;28;20058;-69
2021/07/16 02:39:50;;;;;;;28.45;20.00;;;;;;;;;;5074656;28;20044;-68
2021/07/16 02:42:15;;;;;;;26.75;19.85;;;;;;;;;;5075925;28;20520;-69
2021/07/16 02:44:41;;;;;;;29.70;19.27;;;;;;;;;;5093795;28;20033;-69
2021/07/16 02:47:06;;;;;;;22.48;18.75;;;;;;;;;;5094066;28;20036;-68
2021/07/16 02:49:32;;;;;;;26.90;19.85;;;;;;;;;;5075603;28;20016;-69
2021/07/16 02:51:57;;;;;;;26.27;20.92;;;;;;;;;;5093661;28;20039;-68
2021/07/16 02:54:23;;;;;;;31.85;22.15;;;;;;;;;;5093576;28;20016;-68
2021/07/16 02:56:48;;;;;;;29.08;22.30;;;;;;;;;;5093834;28;20032;-68
2021/07/16 02:59:14;;;;;;;32.47;21.80;;;;;;;;;;5094031;28;20362;-69
2021/07/16 03:01:56;;;;;;;30.70;22.10;;;;;;;;;;5093875;28;20028;-69
2021/07/16 03:04:22;;;;;;;29.38;21.30;;;;;;;;;;5075316;28;20445;-69
2021/07/16 03:06:47;;;;;;;28.92;20.33;;;;;;;;;;5093641;28;20008;-69
2021/07/16 03:09:13;;;;;;;27.23;19.45;;;;;;;;;;5075580;28;20027;-69
2021/07/16 03:11:39;;;;;;;26.70;20.45;;;;;;;;;;5093644;28;20050;-70
2021/07/16 03:14:05;;;;;;;34.72;20.85;;;;;;;;;;5075475;28;20490;-69
2021/07/16 03:16:32;;;;;;;39.25;23.63;;;;;;;;;;5075350;28;20028;-69
2021/07/16 03:18:58;;;;;;;35.42;22.88;;;;;;;;;;5093694;28;20032;-69
2021/07/16 03:21:23;;;;;;;41.33;24.27;;;;;;;;;;5093565;28;20020;-69
2021/07/16 03:23:49;;;;;;;36.38;21.17;;;;;;;;;;5093487;28;20035;-69
2021/07/16 03:26:14;;;;;;;32.85;20.90;;;;;;;;;;5075671;28;20023;-69
2021/07/16 03:28:40;;;;;;;36.47;23.25;;;;;;;;;;5093628;28;20030;-68
2021/07/16 03:31:05;;;;;;;41.67;23.05;;;;;;;;;;5093699;28;20016;-69
2021/07/16 03:33:30;;;;;;;43.03;24.35;;;;;;;;;;5093501;28;20416;-69
2021/07/16 03:35:56;;;;;;;38.25;21.85;;;;;;;;;;5093597;28;20473;-69
2021/07/16 03:38:21;;;;;;;36.88;21.42;;;;;;;;;;5093439;28;20043;-71
2021/07/16 03:40:52;;;;;;;38.72;23.05;;;;;;;;;;5096772;28;20522;-69
2021/07/16 03:43:18;;;;;;;43.15;23.73;;;;;;;;;;5078942;28;20042;-63
2021/07/16 03:45:44;;;;;;;41.53;23.60;;;;;;;;;;5097476;28;20422;-73
2021/07/16 03:48:09;;;;;;;41.47;24.60;;;;;;;;;;5097528;28;20039;-72
2021/07/16 03:50:34;;;;;;;45.63;24.55;;;;;;;;;;5097047;28;20012;-72
2021/07/16 03:53:00;;;;;;;46.20;24.95;;;;;;;;;;5078863;28;20038;-72
2021/07/16 03:55:26;;;;;;;49.95;25.65;;;;;;;;;;5096978;28;20474;-62
2021/07/16 03:57:51;;;;;;;44.95;24.77;;;;;;;;;;5096941;28;20090;-62
2021/07/16 04:00:18;;;;;;;36.35;23.65;;;;;;;;;;5078977;28;20026;-62
2021/07/16 04:02:44;;;;;;;35.85;23.63;;;;;;;;;;5096848;28;20119;-62
2021/07/16 04:05:10;;;;;;;38.03;23.60;;;;;;;;;;5096788;28;20094;-62
2021/07/16 04:07:41;;;;;;;42.67;24.20;;;;;;;;;;5097024;28;20031;-62
2021/07/16 04:10:08;;;;;;;43.88;23.73;;;;;;;;;;5097071;28;20024;-62
2021/07/16 04:12:33;;;;;;;45.42;25.45;;;;;;;;;;5097092;28;20408;-62
2021/07/16 04:14:58;;;;;;;41.63;24.42;;;;;;;;;;5096768;28;20028;-63
2021/07/16 04:17:25;;;;;;;48.10;25.65;;;;;;;;;;5078568;28;20034;-62
2021/07/16 04:19:51;;;;;;;54.90;26.73;;;;;;;;;;5096731;28;20016;-62
2021/07/16 04:22:19;;;;;;;50.00;25.13;;;;;;;;;;5096599;28;20085;-62
2021/07/16 04:24:45;;;;;;;45.42;24.92;;;;;;;;;;5096670;28;20467;-62
2021/07/16 04:27:12;;;;;;;41.50;25.23;;;;;;;;;;5078563;28;20043;-62
2021/07/16 04:29:37;;;;;;;45.50;25.38;;;;;;;;;;5096544;28;20047;-62
2021/07/16 04:32:04;;;;;;;44.08;25.45;;;;;;;;;;5096540;28;20027;-62
2021/07/16 04:34:30;;;;;;;48.08;26.05;;;;;;;;;;5096386;28;20012;-62
2021/07/16 04:36:55;;;;;;;44.80;24.58;;;;;;;;;;5096811;28;20085;-62
2021/07/16 04:39:21;;;;;;;47.92;26.98;;;;;;;;;;5096207;28;20414;-62
2021/07/16 04:41:47;;;;;;;49.53;26.63;;;;;;;;;;5095538;28;20044;-62
2021/07/16 04:44:12;;;;;;;51.63;28.55;;;;;;;;;;5096062;28;20016;-62
2021/07/16 04:46:38;;;;;;;47.72;25.75;;;;;;;;;;5096202;28;20032;-62
2021/07/16 04:49:03;;;;;;;42.72;26.25;;;;;;;;;;5095919;28;20020;-62
2021/07/16 04:51:29;;;;;;;50.05;29.52;;;;;;;;;;5095125;28;20035;-62
2021/07/16 04:53:55;;;;;;;46.47;27.90;;;;;;;;;;5077905;28;20470;-62
2021/07/16 04:56:22;;;;;;;50.28;28.38;;;;;;;;;;5095810;28;20175;-62
2021/07/16 04:58:47;;;;;;;45.85;27.77;;;;;;;;;;5095870;28;20051;-62
2021/07/16 05:01:13;;;;;;;44.88;27.35;;;;;;;;;;5095730;28;20479;-62
2021/07/16 05:03:38;;;;;;;45.80;27.92;;;;;;;;;;5077535;28;20527;-62
2021/07/16 05:06:04;;;;;;;42.00;25.42;;;;;;;;;;5095634;28;20020;-62
2021/07/16 05:08:29;;;;;;;45.78;27.08;;;;;;;;;;5077545;28;20058;-62
2021/07/16 05:10:55;;;;;;;39.58;26.50;;;;;;;;;;5077284;28;20031;-62
2021/07/16 05:13:20;;;;;;;45.13;27.45;;;;;;;;;;5095403;28;20398;-62
2021/07/16 05:15:46;;;;;;;41.50;26.63;;;;;;;;;;5095399;28;20546;-62
2021/07/16 05:18:11;;;;;;;41.70;26.40;;;;;;;;;;5077389;28;20084;-62
2021/07/16 05:20:37;;;;;;;39.65;26.67;;;;;;;;;;5095345;28;20023;-62
2021/07/16 05:23:02;;;;;;;38.30;26.02;;;;;;;;;;5095249;28;20024;-62
2021/07/16 05:25:28;;;;;;;48.60;27.30;;;;;;;;;;5077028;28;20032;-62
2021/07/16 05:27:53;;;;;;;41.70;26.15;;;;;;;;;;5095139;28;20016;-62
2021/07/16 05:30:19;;;;;;;38.05;26.02;;;;;;;;;;5060447;28;20016;-62
2021/07/16 05:32:44;;;;;;;38.88;25.55;;;;;;;;;;5094688;28;20099;-62
2021/07/16 05:35:10;;;;;;;37.38;24.70;;;;;;;;;;5095169;28;20036;-63
2021/07/16 05:37:35;;;;;;;46.33;27.20;;;;;;;;;;5095050;28;20451;-62
2021/07/16 05:40:01;;;;;;;45.10;26.33;;;;;;;;;;5094733;28;20028;-63
2021/07/16 05:42:26;;;;;;;48.22;26.13;;;;;;;;;;5095006;28;20494;-62
2021/07/16 05:44:52;;;;;;;45.33;27.38;;;;;;;;;;5094890;28;20032;-62
2021/07/16 05:47:18;;;;;;;44.42;26.02;;;;;;;;;;5094964;28;20070;-62
2021/07/16 05:49:43;;;;;;;39.20;24.67;;;;;;;;;;5094765;28;20028;-62
2021/07/16 05:52:09;;;;;;;41.63;23.85;;;;;;;;;;5094742;28;20533;-62
2021/07/16 05:54:34;;;;;;;35.00;23.13;;;;;;;;;;5076685;28;20103;-62
2021/07/16 05:57:00;;;;;;;37.20;22.65;;;;;;;;;;5094805;28;20013;-63
2021/07/16 05:59:25;;;;;;;38.72;22.90;;;;;;;;;;5094702;28;20020;-63
2021/07/16 06:01:51;;;;;;;35.83;23.48;;;;;;;;;;5094466;28;20364;-63
2021/07/16 06:04:16;;;;;;;39.20;23.10;;;;;;;;;;5093538;28;20407;-63
2021/07/16 06:06:42;;;;;;;38.80;22.55;;;;;;;;;;5094385;28;20448;-63
2021/07/16 06:09:07;;;;;;;44.78;23.92;;;;;;;;;;5094368;28;20028;-63
2021/07/16 06:11:33;;;;;;;36.60;23.00;;;;;;;;;;5094249;28;20028;-63
2021/07/16 06:13:59;;;;;;;39.15;22.70;;;;;;;;;;5076165;28;20101;-63
2021/07/16 06:16:24;;;;;;;39.35;21.50;;;;;;;;;;5094340;28;20031;-63
2021/07/16 06:18:50;;;;;;;40.20;22.65;;;;;;;;;;5094307;28;20036;-63
2021/07/16 06:21:15;;;;;;;41.03;22.83;;;;;;;;;;5094100;28;20035;-63
2021/07/16 06:23:41;;;;;;;38.22;21.40;;;;;;;;;;5093989;28;20457;-63
2021/07/16 06:26:06;;;;;;;36.47;20.80;;;;;;;;;;5094157;28;20069;-63
2021/07/16 06:28:31;;;;;;;38.22;22.95;;;;;;;;;;5059230;28;20040;-63
2021/07/16 06:30:57;;;;;;;37.90;22.67;;;;;;;;;;5093972;28;20062;-63
2021/07/16 06:33:22;;;;;;;38.85;22.02;;;;;;;;;;5093915;28;20449;-63
2021/07/16 06:35:48;;;;;;;39.85;22.25;;;;;;;;;;5093999;28;20044;-63
2021/07/16 06:38:13;;;;;;;40.28;21.08;;;;;;;;;;5093834;28;20467;-63
2021/07/16 06:40:39;;;;;;;38.92;24.00;;;;;;;;;;5093478;28;20071;-63
2021/07/16 06:43:09;;;;;;;34.88;22.60;;;;;;;;;;5075600;28;20043;-63
2021/07/16 06:45:36;;;;;;;36.25;21.02;;;;;;;;;;5075694;28;20106;-63
2021/07/16 06:48:01;;;;;;;40.53;20.77;;;;;;;;;;5093820;28;20380;-63
2021/07/16 06:50:27;;;;;;;37.08;21.42;;;;;;;;;;5093637;28;20020;-63
2021/07/16 06:52:52;;;;;;;32.70;20.45;;;;;;;;;;5093590;28;20548;-63
2021/07/16 06:55:18;;;;;;;31.40;20.23;;;;;;;;;;5093567;28;20031;-63
2021/07/16 06:57:43;;;;;;;33.53;20.67;;;;;;;;;;5093511;28;20041;-63
2021/07/16 07:00:09;;;;;;;35.25;19.85;;;;;;;;;;5075333;28;20498;-63
2021/07/16 07:02:34;;;;;;;29.95;18.95;;;;;;;;;;5093449;28;20486;-63
2021/07/16 07:05:00;;;;;;;30.40;19.02;;;;;;;;;;5093389;28;20035;-63
2021/07/16 07:07:25;;;;;;;27.40;18.73;;;;;;;;;;5093369;28;20102;-63
2021/07/16 07:09:51;;;;;;;30.08;18.20;;;;;;;;;;5093463;28;20110;-62
2021/07/16 07:12:16;;;;;;;23.73;16.08;;;;;;;;;;5093406;28;20030;-62
2021/07/16 07:14:42;;;;;;;18.63;14.43;;;;;;;;;;5093086;28;20024;-62
2021/07/16 07:17:07;;;;;;;17.58;13.65;;;;;;;;;;5093423;28;20016;-62
2021/07/16 07:19:33;;;;;;;18.42;12.93;;;;;;;;;;5093401;28;20084;-62
2021/07/16 07:21:58;;;;;;;15.98;13.00;;;;;;;;;;5093304;28;20069;-63
2021/07/16 07:24:23;;;;;;;19.73;13.88;;;;;;;;;;5092859;28;20060;-63
2021/07/16 07:26:49;;;;;;;16.15;13.63;;;;;;;;;;5093181;28;20020;-63
2021/07/16 07:29:15;;;;;;;15.45;13.13;;;;;;;;;;5074891;28;20028;-63
2021/07/16 07:31:40;;;;;;;19.45;13.65;;;;;;;;;;5075180;28;20016;-62
2021/07/16 07:34:06;;;;;;;16.38;13.88;;;;;;;;;;5074972;28;20035;-61
2021/07/16 07:36:31;;;;;;;15.90;13.57;;;;;;;;;;5093179;28;20038;-61
2021/07/16 07:38:57;;;;;;;18.67;14.52;;;;;;;;;;5092913;28;20027;-61
2021/07/16 07:41:22;;;;;;;19.67;14.85;;;;;;;;;;5092847;28;20075;-61
2021/07/16 07:43:48;;;;;;;20.00;15.18;;;;;;;;;;5092907;28;20032;-61
2021/07/16 07:46:14;;;;;;;17.85;14.25;;;;;;;;;;5092975;28;20502;-61
2021/07/16 07:48:41;;;;;;;20.08;14.27;;;;;;;;;;5092932;28;20391;-61
2021/07/16 07:51:06;;;;;;;20.35;14.90;;;;;;;;;;5092893;28;20019;-61
2021/07/16 07:53:31;;;;;;;18.35;15.05;;;;;;;;;;5092956;28;20024;-61
2021/07/16 07:55:57;;;;;;;24.48;15.77;;;;;;;;;;5092901;28;20049;-61
2021/07/16 07:58:22;;;;;;;23.55;16.83;;;;;;;;;;5074720;28;20085;-61
2021/07/16 08:00:48;;;;;;;21.05;16.55;;;;;;;;;;5092898;28;20052;-61
2021/07/16 08:03:13;;;;;;;18.95;16.00;;;;;;;;;;5092897;28;20502;-61
2021/07/16 08:05:39;;;;;;;24.65;17.58;;;;;;;;;;5092827;28;20047;-61
2021/07/16 08:08:04;;;;;;;20.88;16.23;;;;;;;;;;5092827;28;20024;-60
2021/07/16 08:10:30;;;;;;;19.55;15.15;;;;;;;;;;5092691;28;20031;-61
2021/07/16 08:12:55;;;;;;;21.73;14.93;;;;;;;;;;5092637;28;20020;-61
2021/07/16 08:15:21;;;;;;;16.88;14.75;;;;;;;;;;5092782;28;20027;-60
2021/07/16 08:17:47;;;;;;;20.00;13.65;;;;;;;;;;5074567;28;20434;-61
2021/07/16 08:20:12;;;;;;;13.52;9.57;;;;;;;;;;5092687;28;20020;-60
2021/07/16 08:22:39;;;;;;;9.00;7.53;;;;;;;;;;5092505;28;20086;-60
2021/07/16 08:25:05;;;;;;;10.15;7.50;;;;;;;;;;5092597;28;20043;-60
2021/07/16 08:27:31;;;;;;;5.85;5.35;;;;;;;;;;5095611;28;20024;-60
2021/07/16 08:29:57;;;;;;;5.05;4.72;;;;;;;;;;5096300;28;20402;-61
2021/07/16 08:32:22;;;;;;;5.60;5.10;;;;;;;;;;5096255;28;20028;-60
2021/07/16 08:34:47;;;;;;;4.75;4.35;;;;;;;;;;5096264;28;20383;-60
2021/07/16 08:37:13;;;;;;;4.88;4.43;;;;;;;;;;5096348;28;20084;-62
2021/07/16 08:39:38;;;;;;;4.43;4.03;;;;;;;;;;5077861;28;20439;-61
2021/07/16 08:42:04;;;;;;;4.10;3.80;;;;;;;;;;5095937;28;20048;-62
2021/07/16 08:44:30;;;;;;;4.63;4.20;;;;;;;;;;5096139;28;20028;-62
2021/07/16 08:46:56;;;;;;;4.47;4.15;;;;;;;;;;5096042;28;20036;-62
2021/07/16 08:49:21;;;;;;;5.63;4.65;;;;;;;;;;5095988;28;20122;-61
2021/07/16 08:51:47;;;;;;;4.75;4.45;;;;;;;;;;5095917;28;20020;-61
2021/07/16 08:54:17;;;;;;;10.48;5.82;;;;;;;;;;5095924;28;20020;-61
2021/07/16 08:56:43;;;;;;;;;;;;;;;;;;5096370;28;20073;-62
2021/07/16 08:59:09;;;;;;;5.45;5.05;;;;;;;;;;5095829;28;19904;-62
2021/07/16 09:01:39;;;;;;;6.90;5.70;;;;;;;;;;5095689;28;20032;-62
2021/07/16 09:04:08;;;;;;;6.47;5.13;;;;;;;;;;5095642;28;20114;-62
2021/07/16 09:06:43;;;;;;;6.05;5.28;;;;;;;;;;5095566;28;20081;-62
2021/07/16 09:09:09;;;;;;;6.00;5.40;;;;;;;;;;5095505;28;20089;-61
2021/07/16 09:11:41;;;;;;;11.82;6.05;;;;;;;;;;5077473;28;20479;-60
2021/07/16 09:14:07;;;;;;;6.40;5.80;;;;;;;;;;5076971;28;20078;-62
2021/07/16 09:16:33;;;;;;;7.60;6.38;;;;;;;;;;5077464;28;20039;-61
2021/07/16 09:18:58;;;;;;;7.13;5.82;;;;;;;;;;5095381;28;20028;-61
2021/07/16 09:21:24;;;;;;;7.03;5.45;;;;;;;;;;5077292;28;20028;-61
2021/07/16 09:23:49;;;;;;;6.80;5.30;;;;;;;;;;5095193;28;20028;-60
2021/07/16 09:26:16;;;;;;;8.25;6.25;;;;;;;;;;5077113;28;20023;-61
2021/07/16 09:28:46;;;;;;;7.22;6.03;;;;;;;;;;5095134;28;20478;-60
2021/07/16 09:31:17;;;;;;;6.63;5.32;;;;;;;;;;5095183;28;20020;-61
2021/07/16 09:33:48;;;;;;;5.60;5.10;;;;;;;;;;5077015;28;20028;-61
2021/07/16 09:36:13;;;;;;;;;;;;;;;;;;5095507;28;20035;-61
2021/07/16 09:38:38;;;;;;;7.40;5.37;;;;;;;;;;5094714;28;20297;-61
2021/07/16 09:41:05;;;;;;;5.75;5.25;;;;;;;;;;5094438;28;20289;-60
2021/07/16 09:43:31;;;;;;;8.05;5.47;;;;;;;;;;5094856;28;20034;-61
2021/07/16 09:46:00;;;;;;;5.70;4.97;;;;;;;;;;5094943;28;20111;-61
2021/07/16 09:48:27;;;;;;;5.38;4.70;;;;;;;;;;5094909;28;20089;-61
2021/07/16 09:51:07;;;;;;;5.72;5.25;;;;;;;;;;5094813;28;20499;-61
2021/07/16 09:53:39;;;;;;;6.75;6.05;;;;;;;;;;5076636;28;20537;-61
2021/07/16 09:56:11;;;;;;;7.05;6.30;;;;;;;;;;5094688;28;20034;-61
2021/07/16 09:58:37;;;;;;;8.25;6.00;;;;;;;;;;5094617;28;20110;-61
2021/07/16 10:01:02;;;;;;;12.35;6.72;;;;;;;;;;5076395;28;20079;-61
2021/07/16 10:03:28;;;;;;;9.30;6.28;;;;;;;;;;5094485;28;20024;-60
2021/07/16 10:05:54;;;;;;;10.77;6.50;;;;;;;;;;5094537;28;20418;-61
2021/07/16 10:08:20;;;;;;;7.78;7.03;;;;;;;;;;5094509;28;20025;-61
2021/07/16 10:10:46;;;;;;;7.88;6.72;;;;;;;;;;5094478;28;20123;-61
2021/07/16 10:13:12;;;;;;;7.95;7.13;;;;;;;;;;5076363;28;20085;-61
2021/07/16 10:15:38;;;;;;;10.23;7.75;;;;;;;;;;5094289;28;20073;-61
2021/07/16 10:18:05;;;;;;;8.40;7.60;;;;;;;;;;5094182;28;20429;-61
2021/07/16 10:20:34;;;;;;;8.40;6.97;;;;;;;;;;5094220;28;20027;-61
2021/07/16 10:22:59;;;;;;;14.52;9.18;;;;;;;;;;5094153;28;20078;-61
2021/07/16 10:25:26;;;;;;;10.93;8.88;;;;;;;;;;5094112;28;20024;-61
2021/07/16 10:27:52;;;;;;;8.88;8.02;;;;;;;;;;5094010;28;20024;-61
2021/07/16 10:30:18;;;;;;;10.50;7.47;;;;;;;;;;5093962;28;20024;-61
2021/07/16 10:32:45;;;;;;;8.30;6.93;;;;;;;;;;5075824;28;20475;-61
2021/07/16 10:35:20;;;;;;;12.50;8.05;;;;;;;;;;5075935;28;20016;-61
2021/07/16 10:37:46;;;;;;;11.45;9.50;;;;;;;;;;5093899;28;20498;-61
2021/07/16 10:40:29;;;;;;;10.82;9.25;;;;;;;;;;5093412;28;20064;-61
2021/07/16 10:42:56;;;;;;;10.95;9.15;;;;;;;;;;5075758;28;20101;-61
2021/07/16 10:45:31;;;;;;;14.45;10.00;;;;;;;;;;5075540;28;20024;-61
2021/07/16 10:48:08;;;;;;;14.57;10.15;;;;;;;;;;5093778;28;20032;-61
2021/07/16 10:50:37;;;;;;;13.43;9.82;;;;;;;;;;5093422;28;20055;-61
2021/07/16 10:53:03;;;;;;;13.77;9.65;;;;;;;;;;5093831;28;20023;-61
2021/07/16 10:55:29;;;;;;;12.85;10.10;;;;;;;;;;5093650;28;20388;-61
2021/07/16 10:57:54;;;;;;;12.55;10.18;;;;;;;;;;5093637;28;20016;-61
2021/07/16 11:00:35;;;;;;;11.40;9.65;;;;;;;;;;5093492;28;20027;-61
2021/07/16 11:03:11;;;;;;;12.60;10.02;;;;;;;;;;5093028;28;20077;-61
2021/07/16 11:05:36;;;;;;;13.90;9.20;;;;;;;;;;5075633;28;20102;-61
2021/07/16 11:08:03;;;;;;;13.25;9.30;;;;;;;;;;5093359;28;20439;-61
2021/07/16 11:10:47;;;;;;;11.15;9.23;;;;;;;;;;5093445;28;20072;-61
2021/07/16 11:13:31;;;;;;;11.40;9.43;;;;;;;;;;5075419;28;20028;-61
2021/07/16 11:15:57;;;;;;;9.90;8.25;;;;;;;;;;5093235;28;20050;-61
2021/07/16 11:18:28;;;;;;;10.05;8.98;;;;;;;;;;5093284;28;20027;-61
2021/07/16 11:20:54;;;;;;;10.70;8.50;;;;;;;;;;5093287;28;20024;-61
2021/07/16 11:23:20;;;;;;;11.57;8.95;;;;;;;;;;5093158;28;20020;-61
2021/07/16 11:25:46;;;;;;;11.23;10.13;;;;;;;;;;5075237;28;20047;-61
2021/07/16 11:28:12;;;;;;;10.82;9.68;;;;;;;;;;5093242;28;20024;-61
2021/07/16 11:30:37;;;;;;;13.07;9.98;;;;;;;;;;5093050;28;20032;-61
2021/07/16 11:33:04;;;;;;;11.07;9.90;;;;;;;;;;5093028;28;20027;-61
2021/07/16 11:35:30;;;;;;;10.75;9.73;;;;;;;;;;5093171;28;20108;-61
2021/07/16 11:37:55;;;;;;;11.52;9.43;;;;;;;;;;5093189;28;20016;-61
2021/07/16 11:40:22;;;;;;;11.98;9.38;;;;;;;;;;5092777;28;20032;-62
2021/07/16 11:42:53;;;;;;;10.88;9.10;;;;;;;;;;5058251;28;20020;-61
2021/07/16 11:45:22;;;;;;;10.40;9.07;;;;;;;;;;5093021;28;20372;-61
2021/07/16 11:47:47;;;;;;;9.80;8.60;;;;;;;;;;5093014;28;20020;-61
2021/07/16 11:50:14;;;;;;;10.60;8.63;;;;;;;;;;5092970;28;20020;-61
2021/07/16 11:52:45;;;;;;;10.57;8.07;;;;;;;;;;5093015;28;20012;-61
2021/07/16 11:55:10;;;;;;;;;;;;;;;;;;5075465;28;20028;-61
2021/07/16 11:57:44;;;;;;;9.68;8.38;;;;;;;;;;5074937;28;20335;-61
2021/07/16 12:00:10;;;;;;;11.07;8.73;;;;;;;;;;5093585;28;20038;-61
2021/07/16 12:02:37;;;;;;;10.05;9.00;;;;;;;;;;5097070;28;20437;-61
2021/07/16 12:05:03;;;;;;;14.93;9.75;;;;;;;;;;5078652;28;20028;-61
2021/07/16 12:07:38;;;;;;;11.45;8.73;;;;;;;;;;5078704;28;20013;-61
2021/07/16 12:10:07;;;;;;;10.77;9.68;;;;;;;;;;5096711;28;20115;-61
2021/07/16 12:12:33;;;;;;;13.20;9.47;;;;;;;;;;5096690;28;20016;-61
2021/07/16 12:14:59;;;;;;;12.13;10.50;;;;;;;;;;5096584;28;20024;-60
2021/07/16 12:17:30;;;;;;;11.60;10.40;;;;;;;;;;5096596;28;20024;-61
2021/07/16 12:19:56;;;;;;;12.90;10.95;;;;;;;;;;5096563;28;20050;-61
2021/07/16 12:22:22;;;;;;;11.52;10.18;;;;;;;;;;5096470;28;20085;-60
2021/07/16 12:24:48;;;;;;;15.52;10.23;;;;;;;;;;5096517;28;20020;-61
2021/07/16 12:27:15;;;;;;;13.40;9.80;;;;;;;;;;5096410;28;20016;-61
2021/07/16 12:29:41;;;;;;;13.68;8.90;;;;;;;;;;5096322;28;20028;-61
2021/07/16 12:32:07;;;;;;;8.93;8.07;;;;;;;;;;5096267;28;20077;-61
2021/07/16 12:34:33;;;;;;;9.35;8.18;;;;;;;;;;5096127;28;20043;-61
2021/07/16 12:37:12;;;;;;;9.75;8.20;;;;;;;;;;5096279;28;20023;-61
2021/07/16 12:39:39;;;;;;;11.68;8.80;;;;;;;;;;5096096;28;20039;-61
2021/07/16 12:42:22;;;;;;;10.48;9.25;;;;;;;;;;5095915;28;20047;-61
2021/07/16 12:45:07;;;;;;;10.85;9.63;;;;;;;;;;5077822;28;20058;-61
2021/07/16 12:47:34;;;;;;;10.57;9.52;;;;;;;;;;5096292;28;20070;-60
2021/07/16 12:50:10;;;;;;;11.75;9.20;;;;;;;;;;5077709;28;20414;-61
2021/07/16 12:52:36;;;;;;;10.48;9.18;;;;;;;;;;5095500;28;20074;-61
2021/07/16 12:55:11;;;;;;;13.63;10.10;;;;;;;;;;5095842;28;20433;-61
2021/07/16 12:57:37;;;;;;;10.55;9.45;;;;;;;;;;5095779;28;20464;-61
2021/07/16 13:00:12;;;;;;;12.55;10.60;;;;;;;;;;5095777;28;20107;-61
2021/07/16 13:02:37;;;;;;;11.85;9.15;;;;;;;;;;5095799;28;20028;-61
2021/07/16 13:05:03;;;;;;;11.75;9.90;;;;;;;;;;5095737;28;20429;-61
2021/07/16 13:07:28;;;;;;;13.18;10.60;;;;;;;;;;5095815;28;20138;-61
2021/07/16 13:09:54;;;;;;;13.30;10.00;;;;;;;;;;5095685;28;20024;-61
2021/07/16 13:12:20;;;;;;;15.30;10.80;;;;;;;;;;5095087;28;20016;-61
2021/07/16 13:14:48;;;;;;;15.32;10.88;;;;;;;;;;5095575;28;20039;-61
2021/07/16 13:17:19;;;;;;;15.63;9.82;;;;;;;;;;5095551;28;20028;-60
2021/07/16 13:19:44;;;;;;;;;;;;;;;;;;5095902;28;20028;-61
2021/07/16 13:22:09;;;;;;;10.20;9.25;;;;;;;;;;5095351;28;20256;-60
2021/07/16 13:24:35;;;;;;;11.95;10.23;;;;;;;;;;5095243;28;20031;-61
2021/07/16 13:27:00;;;;;;;12.98;9.82;;;;;;;;;;5095295;28;20019;-60
2021/07/16 13:29:27;;;;;;;11.98;9.88;;;;;;;;;;5077140;28;20387;-61
2021/07/16 13:31:52;;;;;;;13.18;10.32;;;;;;;;;;5077174;28;20050;-63
2021/07/16 13:34:17;;;;;;;13.77;9.90;;;;;;;;;;5077179;28;20028;-63
2021/07/16 13:36:43;;;;;;;16.08;10.60;;;;;;;;;;5060318;28;20048;-64
2021/07/16 13:39:08;;;;;;;13.77;10.13;;;;;;;;;;5094929;28;20032;-64
2021/07/16 13:41:34;;;;;;;13.07;10.05;;;;;;;;;;5094881;28;20052;-62
2021/07/16 13:43:59;;;;;;;11.30;10.00;;;;;;;;;;5095013;28;20479;-62
2021/07/16 13:46:25;;;;;;;14.73;9.98;;;;;;;;;;5076743;28;20020;-62
2021/07/16 13:48:50;;;;;;;13.00;10.00;;;;;;;;;;5095117;28;20480;-62
2021/07/16 13:51:17;;;;;;;13.90;10.35;;;;;;;;;;5095224;28;20069;-62
2021/07/16 13:53:43;;;;;;;14.15;10.02;;;;;;;;;;5095286;28;20028;-62
2021/07/16 13:56:09;;;;;;;13.52;10.05;;;;;;;;;;5095327;28;20020;-62
2021/07/16 13:58:34;;;;;;;12.88;10.30;;;;;;;;;;5094959;28;20032;-62
2021/07/16 14:01:00;;;;;;;14.32;10.15;;;;;;;;;;5095284;28;20020;-62
2021/07/16 14:03:25;;;;;;;11.75;9.63;;;;;;;;;;5077128;28;20038;-62
2021/07/16 14:05:51;;;;;;;13.77;9.52;;;;;;;;;;5094914;28;20095;-62
2021/07/16 14:08:16;;;;;;;11.85;9.90;;;;;;;;;;5094459;28;20119;-62
2021/07/16 14:10:42;;;;;;;13.10;9.35;;;;;;;;;;5075467;28;20032;-63
2021/07/16 14:13:08;;;;;;;11.73;9.93;;;;;;;;;;5094581;28;20028;-63
2021/07/16 14:15:33;;;;;;;13.10;10.75;;;;;;;;;;5093517;28;20152;-63
2021/07/16 14:17:59;;;;;;;12.82;9.55;;;;;;;;;;5093012;28;20028;-64
2021/07/16 14:20:24;;;;;;;12.18;9.98;;;;;;;;;;5092732;28;20091;-63